Ashland, MS (38603)

10:06 AM CDT on July 27, 2016 (GMT -0500)
PHQ | | Change Station

Elev 630 ft 34.83 °N, 89.17 °W | Updated 1 minute ago

Scattered Clouds
Scattered Clouds
85.6 °F
Feels Like 95 °F
N
3.7
Wind Variable Wind from SSW

Today
High -- | Low -- °F
--% Chance of Precip.
Yesterday
High -- | Low -- °F
Precip. -- in
Pressure 29.99 in
Visibility 10.0 miles
Clouds Few 1800 ft
Scattered Clouds 2600 ft
Heat Index 95 °F
Dew Point 76 °F
Humidity 73%
Rainfall 0.00 in
Snow Depth Not available.
6:03 AM 8:02 PM
Last Quarter, 42% visible
METAR KCRX 271455Z AUTO 14009KT 10SM FEW018 SCT026 29/22 A2999 RMK AO2
Pressure 29.99 in
Visibility 10.0 miles
Clouds Few 1800 ft
Scattered Clouds 2600 ft
Heat Index 95 °F
Dew Point 76 °F
Humidity 73%
Rainfall 0.00 in
Snow Depth Not available.
6:03 AM 8:02 PM
Last Quarter, 42% visible
METAR KCRX 271455Z AUTO 14009KT 10SM FEW018 SCT026 29/22 A2999 RMK AO2

10-Day Weather Forecast

Almanac

Astronomy

Jul. 27, 2016 Rise Set
Actual Time
Civil Twilight
Nautical Twilight
Astronomical Twilight
Moon
Length of Visible Light
Length of Day
Tomorrow will be .
, % of the Moon is Illuminated

Today's Extremes

State Highs State Lows

Community

WunderPhotos

Upload Photos

1,927,858 photos uploaded!

WunderBlog® & News

Nearby

Air Quality

  Air Quality AQ Index Pollutant
Not available.

Snow Depth

Station Depth Elevation

Earthquake Activity

City Distance Mag. Time & Date
Minimum magnitude displayed is 2.5.

Coastal Water Temperatures

Place Temperature

Stations

Nearby Weather Stations

Station Location Temp. Windchill Dew Point Humidity Wind Precip. Elev Updated Type
                   

Watches & Warnings

There are currently no watches in effect.